createdAt,value
2019-02-12T00:01:47.581Z,11.20
2019-02-12T00:04:19.250Z,9.27
2019-02-12T00:06:50.952Z,11.97
2019-02-12T00:09:22.841Z,8.13
2019-02-12T00:11:54.599Z,10.27
2019-02-12T00:14:26.354Z,6.90
2019-02-12T00:16:57.953Z,8.13
2019-02-12T00:19:29.600Z,6.90
2019-02-12T00:22:01.187Z,11.47
2019-02-12T00:24:32.846Z,8.57
2019-02-12T00:27:04.512Z,8.90
2019-02-12T00:29:36.069Z,8.77
2019-02-12T00:32:07.725Z,10.67
2019-02-12T00:34:39.297Z,6.27
2019-02-12T00:37:10.965Z,6.73
2019-02-12T00:39:42.547Z,8.63
2019-02-12T00:42:14.232Z,4.37
2019-02-12T00:44:45.790Z,6.70
2019-02-12T00:47:17.375Z,8.10
2019-02-12T00:49:49.028Z,5.27
2019-02-12T00:52:20.908Z,6.33
2019-02-12T00:54:52.818Z,9.50
2019-02-12T00:57:24.411Z,8.67
2019-02-12T00:59:56.070Z,9.00
2019-02-12T01:02:27.745Z,10.63
2019-02-12T01:04:59.331Z,10.23
2019-02-12T01:07:30.924Z,12.60
2019-02-12T01:10:02.525Z,7.53
2019-02-12T01:12:34.183Z,6.53
2019-02-12T01:15:07.021Z,8.27
2019-02-12T01:17:38.612Z,6.33
2019-02-12T01:20:11.677Z,5.73
2019-02-12T01:22:43.246Z,9.77
2019-02-12T01:25:14.822Z,5.80
2019-02-12T01:27:46.395Z,12.00
2019-02-12T01:30:18.086Z,9.97
2019-02-12T01:32:49.750Z,11.17
2019-02-12T01:35:21.326Z,4.63
2019-02-12T01:37:53.146Z,7.73
2019-02-12T01:40:24.726Z,9.90
2019-02-12T01:42:56.340Z,9.00
2019-02-12T01:45:27.900Z,8.83
2019-02-12T01:47:59.487Z,6.37
2019-02-12T01:50:31.134Z,10.50
2019-02-12T01:53:02.723Z,8.03
2019-02-12T01:55:34.317Z,5.33
2019-02-12T01:58:05.989Z,7.30
2019-02-12T02:00:37.576Z,9.27
2019-02-12T02:03:09.443Z,5.63
2019-02-12T02:05:41.101Z,10.47
2019-02-12T02:08:12.747Z,7.60
2019-02-12T02:10:44.407Z,10.83
2019-02-12T02:13:16.081Z,10.23
2019-02-12T02:15:47.736Z,4.20
2019-02-12T02:18:19.318Z,6.80
2019-02-12T02:20:51.005Z,8.13
2019-02-12T02:23:22.865Z,8.43
2019-02-12T02:25:54.453Z,8.33
2019-02-12T02:28:26.124Z,11.33
2019-02-12T02:30:57.783Z,9.07
2019-02-12T02:33:29.392Z,5.03
2019-02-12T02:36:00.953Z,6.37
2019-02-12T02:38:32.601Z,9.07
2019-02-12T02:41:04.248Z,8.00
2019-02-12T02:43:35.997Z,6.77
2019-02-12T02:46:08.640Z,8.73
2019-02-12T02:48:40.330Z,6.27
2019-02-12T02:51:11.914Z,10.20
2019-02-12T02:53:43.785Z,8.07
2019-02-12T02:56:16.366Z,4.40
2019-02-12T02:58:48.066Z,6.27
2019-02-12T03:01:19.815Z,7.93
2019-02-12T03:03:51.489Z,6.50
2019-02-12T03:06:23.228Z,10.43
2019-02-12T03:08:54.925Z,11.80
2019-02-12T03:11:26.562Z,6.43
2019-02-12T03:13:59.311Z,8.73
2019-02-12T03:16:30.918Z,11.73
2019-02-12T03:19:02.590Z,9.17
2019-02-12T03:21:34.210Z,9.83
2019-02-12T03:24:05.814Z,11.43
2019-02-12T03:26:37.448Z,4.80
2019-02-12T03:29:09.057Z,8.87
2019-02-12T03:31:40.628Z,9.63
2019-02-12T03:34:12.307Z,10.10
2019-02-12T03:36:43.917Z,11.53
2019-02-12T03:39:15.587Z,6.53
2019-02-12T03:41:47.246Z,6.53
2019-02-12T03:44:19.066Z,5.37
2019-02-12T03:46:50.662Z,7.50
2019-02-12T03:49:22.337Z,8.17
2019-02-12T03:51:54.076Z,9.60
2019-02-12T03:54:26.023Z,31.67
2019-02-12T03:56:57.594Z,6.93
2019-02-12T03:59:29.268Z,8.57
2019-02-12T04:02:00.909Z,5.37
2019-02-12T04:04:32.582Z,9.57
2019-02-12T04:07:04.230Z,9.53
2019-02-12T04:09:35.902Z,13.30
2019-02-12T04:12:07.488Z,8.30
2019-02-12T04:14:39.231Z,12.43
2019-02-12T04:17:10.830Z,7.43
2019-02-12T04:19:42.498Z,6.90
2019-02-12T04:22:22.214Z,8.43
2019-02-12T04:24:47.431Z,8.37
2019-02-12T04:27:19.068Z,6.53
2019-02-12T04:29:50.679Z,7.83
2019-02-12T04:32:22.262Z,14.87
2019-02-12T04:34:54.093Z,9.60
2019-02-12T04:37:26.031Z,8.20
2019-02-12T04:39:57.704Z,5.37
2019-02-12T04:42:29.344Z,5.40
2019-02-12T04:45:01.095Z,10.07
2019-02-12T04:47:32.839Z,8.40
2019-02-12T04:50:04.799Z,6.77
2019-02-12T04:52:36.460Z,7.90
2019-02-12T04:55:09.319Z,14.40
2019-02-12T04:57:40.971Z,7.67
2019-02-12T05:00:14.026Z,10.63
2019-02-12T05:02:46.583Z,5.80
2019-02-12T05:05:18.247Z,12.03
2019-02-12T05:07:50.123Z,8.53
2019-02-12T05:10:22.404Z,12.23
2019-02-12T05:12:54.097Z,9.67
2019-02-12T05:15:26.031Z,12.80
2019-02-12T05:17:57.684Z,9.50
2019-02-12T05:20:29.245Z,15.43
2019-02-12T05:23:00.824Z,17.60
2019-02-12T05:25:32.473Z,4.77
2019-02-12T05:28:04.109Z,8.27
2019-02-12T05:30:35.698Z,10.17
2019-02-12T05:33:07.354Z,11.73
2019-02-12T05:35:38.925Z,7.40
2019-02-12T05:38:11.091Z,7.33
2019-02-12T05:40:42.779Z,13.27
2019-02-12T05:43:14.363Z,9.13
2019-02-12T05:45:46.067Z,11.27
2019-02-12T05:48:17.659Z,11.23
2019-02-12T05:50:49.365Z,6.80
2019-02-12T05:53:21.172Z,7.40
2019-02-12T05:55:53.102Z,14.37
2019-02-12T05:58:25.127Z,5.13
2019-02-12T06:00:56.893Z,15.07
2019-02-12T06:03:28.476Z,3.53
2019-02-12T06:06:00.062Z,9.00
2019-02-12T06:08:31.644Z,9.50
2019-02-12T06:11:03.262Z,5.40
2019-02-12T06:13:34.923Z,6.67
2019-02-12T06:16:06.601Z,10.23
2019-02-12T06:18:38.181Z,8.33
2019-02-12T06:21:11.298Z,12.60
2019-02-12T06:23:42.848Z,16.20
2019-02-12T06:26:14.523Z,10.07
2019-02-12T06:28:46.171Z,13.37
2019-02-12T06:31:17.802Z,39.63
2019-02-12T06:33:49.396Z,6.43
2019-02-12T06:36:21.118Z,20.10
2019-02-12T06:38:52.920Z,17.40
2019-02-12T06:41:24.524Z,9.47
2019-02-12T06:43:56.112Z,22.43
2019-02-12T06:46:29.445Z,14.20
2019-02-12T06:49:01.093Z,7.60
2019-02-12T06:51:32.680Z,5.90
2019-02-12T06:54:04.670Z,10.10
2019-02-12T06:56:36.265Z,12.43
2019-02-12T06:59:07.883Z,12.37
2019-02-12T07:01:39.488Z,9.20
2019-02-12T07:04:14.433Z,6.37
2019-02-12T07:07:20.442Z,9.70
2019-02-12T07:10:12.577Z,16.47
2019-02-12T07:13:24.452Z,16.47
2019-02-12T07:16:21.121Z,9.50
2019-02-12T07:19:24.563Z,7.10
2019-02-12T07:22:33.302Z,8.57
2019-02-12T07:25:42.262Z,15.77
2019-02-12T07:28:38.220Z,13.67
2019-02-12T07:31:51.845Z,7.23
2019-02-12T07:35:17.315Z,13.67
2019-02-12T07:38:20.467Z,11.00
2019-02-12T07:41:51.883Z,8.33
2019-02-12T07:45:07.646Z,10.37
2019-02-12T07:48:23.578Z,9.67
2019-02-12T07:51:23.642Z,14.03
2019-02-12T07:54:29.332Z,9.03
2019-02-12T07:57:47.328Z,6.03
2019-02-12T08:00:58.373Z,12.53
2019-02-12T08:04:44.371Z,9.47
2019-02-12T08:08:16.084Z,12.07
2019-02-12T08:11:30.089Z,13.13
2019-02-12T08:14:32.683Z,10.90
2019-02-12T08:17:40.839Z,15.60
2019-02-12T08:20:56.920Z,14.30
2019-02-12T08:24:08.074Z,7.10
2019-02-12T08:26:59.304Z,7.87
2019-02-12T08:30:13.793Z,9.00
2019-02-12T08:33:29.719Z,14.70
2019-02-12T08:36:18.701Z,9.70
2019-02-12T08:39:34.026Z,9.27
2019-02-12T08:42:33.589Z,15.57
2019-02-12T08:45:43.705Z,26.57
2019-02-12T08:49:01.072Z,15.53
2019-02-12T08:52:06.670Z,13.33
2019-02-12T08:55:04.338Z,15.80
2019-02-12T08:58:10.407Z,13.40
2019-02-12T09:01:27.798Z,18.77
2019-02-12T09:04:52.301Z,8.93
2019-02-12T09:07:59.230Z,9.70
2019-02-12T09:11:06.221Z,13.37
2019-02-12T09:14:05.386Z,13.37
2019-02-12T09:17:13.873Z,24.70
2019-02-12T09:20:31.287Z,21.00
2019-02-12T09:23:41.688Z,10.00
2019-02-12T09:26:34.054Z,10.10
2019-02-12T09:29:26.182Z,8.87
2019-02-12T09:32:53.985Z,16.07
2019-02-12T09:35:49.006Z,11.43
2019-02-12T09:39:10.785Z,9.20
2019-02-12T09:41:58.658Z,13.77
2019-02-12T09:45:05.476Z,17.90
2019-02-12T09:48:08.350Z,11.60
2019-02-12T09:50:58.086Z,9.43
2019-02-12T09:54:21.807Z,7.97
2019-02-12T09:57:34.701Z,29.60
2019-02-12T10:00:34.430Z,9.10
2019-02-12T10:03:48.577Z,14.20
2019-02-12T10:06:55.686Z,31.13
2019-02-12T10:10:08.765Z,10.73
2019-02-12T10:13:22.769Z,5.40
2019-02-12T10:16:31.353Z,9.07
2019-02-12T10:19:38.679Z,6.10
2019-02-12T10:22:39.227Z,8.33
2019-02-12T10:25:34.721Z,6.70
2019-02-12T10:28:59.150Z,12.57
2019-02-12T10:31:49.060Z,30.57
2019-02-12T10:34:20.890Z,12.17
2019-02-12T10:36:52.817Z,16.73
2019-02-12T10:39:24.646Z,15.63
2019-02-12T10:41:56.581Z,31.67
2019-02-12T10:44:28.195Z,22.17
2019-02-12T10:46:59.851Z,7.50
2019-02-12T10:49:31.610Z,6.17
2019-02-12T10:52:03.357Z,9.97
2019-02-12T10:54:35.999Z,8.20
2019-02-12T10:57:07.655Z,5.53
2019-02-12T10:59:39.241Z,13.07
2019-02-12T11:02:11.920Z,10.43
2019-02-12T11:04:43.588Z,8.97
2019-02-12T11:07:15.190Z,14.17
2019-02-12T11:09:46.785Z,9.47
2019-02-12T11:12:18.654Z,17.70
2019-02-12T11:14:50.590Z,11.70
2019-02-12T11:17:22.249Z,8.70
2019-02-12T11:19:53.857Z,12.23
2019-02-12T11:22:25.478Z,6.83
2019-02-12T11:24:57.154Z,6.03
2019-02-12T11:27:28.741Z,9.07
2019-02-12T11:32:49.885Z,5.13
2019-02-12T11:35:21.823Z,10.27
2019-02-12T11:37:53.745Z,7.97
2019-02-12T11:40:25.358Z,6.80
2019-02-12T11:42:57.100Z,11.20
2019-02-12T11:45:28.781Z,2.47
2019-02-12T11:48:00.451Z,6.87
2019-02-12T11:50:32.068Z,14.93
2019-02-12T11:53:03.743Z,11.73
2019-02-12T11:55:36.415Z,8.40
2019-02-12T11:58:08.069Z,8.90
2019-02-12T12:01:04.656Z,7.07
2019-02-12T12:03:36.314Z,10.10
2019-02-12T12:06:07.905Z,13.67
2019-02-12T12:08:39.498Z,10.70
2019-02-12T12:11:11.192Z,17.13
2019-02-12T12:13:42.873Z,40.07
2019-02-12T12:16:14.503Z,137.20
2019-02-12T12:18:46.165Z,18.93
2019-02-12T12:21:17.781Z,112.33
2019-02-12T12:23:49.375Z,9.70
2019-02-12T12:26:20.972Z,36.07
2019-02-12T12:28:52.907Z,7.50
2019-02-12T12:31:24.747Z,5.10
2019-02-12T12:33:57.839Z,14.63
2019-02-12T12:36:29.465Z,6.07
2019-02-12T12:39:01.097Z,6.67
2019-02-12T12:41:34.321Z,7.97
2019-02-12T12:44:05.989Z,5.80
2019-02-12T12:46:37.688Z,68.70
2019-02-12T12:49:09.347Z,9.43
2019-02-12T12:51:41.026Z,6.53
2019-02-12T12:54:12.689Z,13.23
2019-02-12T12:56:44.383Z,12.70
2019-02-12T12:59:16.056Z,3.33
2019-02-12T13:01:47.831Z,9.83
2019-02-12T13:04:19.480Z,6.73
2019-02-12T13:06:51.170Z,15.23
2019-02-12T13:09:22.824Z,6.50
2019-02-12T13:11:54.752Z,6.83
2019-02-12T13:14:26.653Z,7.47
2019-02-12T13:16:58.264Z,7.87
2019-02-12T13:19:29.845Z,11.87
2019-02-12T13:22:02.901Z,6.60
2019-02-12T13:24:34.586Z,4.10
2019-02-12T13:27:08.185Z,5.00
2019-02-12T13:29:42.244Z,7.60
2019-02-12T13:32:16.182Z,7.63
2019-02-12T13:34:50.510Z,9.83
2019-02-12T13:37:25.084Z,7.73
2019-02-12T13:39:57.634Z,23.10
2019-02-12T13:42:30.362Z,25.53
2019-02-12T13:45:02.077Z,46.80
2019-02-12T13:47:35.252Z,24.13
2019-02-12T13:50:07.887Z,15.17
2019-02-12T13:52:40.021Z,6.30
2019-02-12T13:55:17.443Z,11.53
2019-02-12T13:57:46.707Z,13.73
2019-02-12T14:00:18.634Z,16.87
2019-02-12T14:02:51.005Z,6.47
2019-02-12T14:05:23.217Z,7.20
2019-02-12T14:07:55.256Z,20.90
2019-02-12T14:10:26.935Z,29.87
2019-02-12T14:12:59.404Z,6.20
2019-02-12T14:15:33.786Z,10.83
2019-02-12T14:18:06.172Z,6.87
2019-02-12T14:20:39.061Z,19.10
2019-02-12T14:23:10.991Z,10.93
2019-02-12T14:25:43.025Z,6.63
2019-02-12T14:28:16.038Z,10.73
2019-02-12T14:30:47.806Z,11.63
2019-02-12T14:33:19.551Z,10.27
2019-02-12T14:35:51.625Z,10.67
2019-02-12T14:38:25.990Z,10.50
2019-02-12T14:40:58.132Z,12.47
2019-02-12T14:43:32.471Z,18.80
2019-02-12T14:46:04.625Z,15.10
2019-02-12T14:48:36.862Z,12.30
2019-02-12T14:51:09.295Z,14.73
2019-02-12T14:53:42.634Z,12.17
2019-02-12T14:56:14.265Z,19.20
2019-02-12T14:58:47.462Z,61.43
2019-02-12T15:01:19.776Z,34.20
2019-02-12T15:03:51.916Z,50.03
2019-02-12T15:06:24.330Z,12.17
2019-02-12T15:08:56.143Z,64.77
2019-02-12T15:11:27.957Z,6.90
2019-02-12T15:13:59.732Z,11.83
2019-02-12T15:16:31.586Z,20.57
2019-02-12T15:19:03.657Z,25.53
2019-02-12T15:21:35.585Z,28.70
2019-02-12T15:24:07.918Z,31.77
2019-02-12T15:26:39.860Z,20.80
2019-02-12T15:29:12.203Z,22.27
2019-02-12T15:31:44.373Z,30.27
2019-02-12T15:34:16.371Z,42.67
2019-02-12T15:36:48.167Z,20.80
2019-02-12T15:39:19.901Z,34.43
2019-02-12T15:41:53.242Z,23.77
2019-02-12T15:44:27.046Z,58.00
2019-02-12T15:47:00.888Z,40.40
2019-02-12T15:49:33.684Z,50.77
2019-02-12T15:52:05.644Z,185.87
2019-02-12T15:54:38.068Z,30.40
2019-02-12T15:57:10.110Z,62.47
2019-02-12T15:59:41.811Z,56.33
2019-02-12T16:02:13.723Z,34.03
2019-02-12T16:04:50.189Z,20.10
2019-02-12T16:07:24.318Z,52.93
2019-02-12T16:09:57.046Z,59.87
2019-02-12T16:12:29.168Z,127.60
2019-02-12T16:15:01.743Z,149.10
2019-02-12T16:17:36.924Z,101.63
2019-02-12T16:20:10.143Z,53.47
2019-02-12T16:22:43.091Z,32.10
2019-02-12T16:25:16.769Z,46.07
2019-02-12T16:27:51.559Z,48.57
2019-02-12T16:30:23.303Z,82.13
2019-02-12T16:32:58.475Z,47.50
2019-02-12T16:35:31.212Z,53.53
2019-02-12T16:38:03.936Z,20.57
2019-02-12T16:40:36.174Z,58.07
2019-02-12T16:43:07.871Z,39.77
2019-02-12T16:45:53.097Z,46.30
2019-02-12T16:48:26.382Z,62.57
2019-02-12T16:50:58.582Z,46.47
2019-02-12T16:53:36.522Z,33.23
2019-02-12T16:56:12.434Z,25.33
2019-02-12T16:58:45.036Z,29.00
2019-02-12T17:01:17.279Z,26.57
2019-02-12T17:03:49.403Z,26.73
2019-02-12T17:06:21.740Z,29.47
2019-02-12T17:08:54.556Z,46.83
2019-02-12T17:11:26.227Z,59.47
2019-02-12T17:13:59.682Z,197.17
2019-02-12T17:16:33.381Z,30.43
2019-02-12T17:19:06.094Z,46.13
2019-02-12T17:21:38.035Z,32.83
2019-02-12T17:24:11.038Z,50.27
2019-02-12T17:26:43.016Z,127.83
2019-02-12T17:29:15.203Z,472.10
2019-02-12T17:31:46.925Z,594.03
2019-02-12T17:34:18.599Z,289.57
2019-02-12T17:36:52.180Z,315.37
2019-02-12T17:39:24.964Z,140.90
2019-02-12T17:41:56.772Z,69.93
2019-02-12T17:44:28.819Z,99.37
2019-02-12T17:47:00.686Z,111.63
2019-02-12T17:49:32.808Z,86.97
2019-02-12T17:52:04.883Z,120.60
2019-02-12T17:54:36.636Z,119.57
2019-02-12T17:57:08.332Z,158.27
2019-02-12T17:59:41.653Z,101.13
2019-02-12T18:02:14.050Z,77.17
2019-02-12T18:04:46.621Z,79.60
2019-02-12T18:07:18.849Z,102.07
2019-02-12T18:09:51.104Z,134.80
2019-02-12T18:12:23.913Z,77.93
2019-02-12T18:14:56.073Z,45.53
2019-02-12T18:17:27.911Z,62.30
2019-02-12T18:20:00.831Z,37.80
2019-02-12T18:22:34.447Z,45.17
2019-02-12T18:25:07.481Z,40.57
2019-02-12T18:27:40.687Z,36.83
2019-02-12T18:30:14.350Z,26.30
2019-02-12T18:32:46.127Z,32.17
2019-02-12T18:35:18.243Z,31.47
2019-02-12T18:37:50.422Z,37.63
2019-02-12T18:40:22.183Z,81.87
2019-02-12T18:42:56.278Z,39.70
2019-02-12T18:45:28.679Z,37.73
2019-02-12T18:48:01.241Z,27.83
2019-02-12T18:50:33.521Z,46.63
2019-02-12T18:53:05.899Z,32.27
2019-02-12T18:55:38.211Z,114.23
2019-02-12T18:58:10.455Z,72.27
2019-02-12T19:00:42.137Z,71.53
2019-02-12T19:03:13.791Z,83.77
2019-02-12T19:05:48.353Z,73.33
2019-02-12T19:08:20.830Z,59.70
2019-02-12T19:10:53.003Z,37.47
2019-02-12T19:13:25.367Z,50.17
2019-02-12T19:15:57.422Z,36.87
2019-02-12T19:18:29.524Z,60.47
2019-02-12T19:21:01.553Z,37.93
2019-02-12T19:23:33.224Z,38.90
2019-02-12T19:26:05.823Z,98.90
2019-02-12T19:28:39.722Z,99.83
2019-02-12T19:31:12.021Z,54.40
2019-02-12T19:33:47.029Z,36.50
2019-02-12T19:36:21.174Z,33.87
2019-02-12T19:38:53.560Z,27.50
2019-02-12T19:41:25.658Z,32.03
2019-02-12T19:43:57.734Z,26.83
2019-02-12T19:46:29.393Z,42.73
2019-02-12T19:49:20.158Z,29.60
2019-02-12T19:51:52.647Z,97.30
2019-02-12T19:54:25.137Z,175.70
2019-02-12T19:56:58.586Z,293.00
2019-02-12T19:59:30.623Z,283.57
2019-02-12T20:02:02.713Z,346.90
2019-02-12T20:04:34.632Z,429.40
2019-02-12T20:07:06.261Z,338.40
2019-02-12T20:09:37.995Z,259.07
2019-02-12T20:12:12.684Z,183.50
2019-02-12T20:14:47.988Z,182.30
2019-02-12T20:17:20.888Z,111.40
2019-02-12T20:19:53.072Z,123.73
2019-02-12T20:22:25.774Z,106.87
2019-02-12T20:24:58.039Z,116.00
2019-02-12T20:27:36.113Z,107.27
2019-02-12T20:30:10.643Z,73.03
2019-02-12T20:32:44.415Z,55.27
2019-02-12T20:35:18.025Z,120.33
2019-02-12T20:37:50.316Z,172.50
2019-02-12T20:40:22.106Z,182.53
2019-02-12T20:42:54.047Z,99.83
2019-02-12T20:45:26.225Z,58.30
2019-02-12T20:47:58.025Z,62.10
2019-02-12T20:50:29.744Z,44.63
2019-02-12T20:53:01.423Z,47.57
2019-02-12T20:55:34.392Z,42.63
2019-02-12T20:58:06.821Z,76.43
2019-02-12T21:00:38.871Z,31.73
2019-02-12T21:03:11.209Z,27.07
2019-02-12T21:05:44.727Z,40.87
2019-02-12T21:08:16.584Z,51.13
2019-02-12T21:10:50.146Z,50.50
2019-02-12T21:13:23.318Z,92.17
2019-02-12T21:15:55.713Z,59.07
2019-02-12T21:18:29.105Z,49.27
2019-02-12T21:21:01.144Z,36.30
2019-02-12T21:23:34.885Z,59.60
2019-02-12T21:26:07.619Z,45.57
2019-02-12T21:28:39.615Z,63.97
2019-02-12T21:31:12.004Z,45.77
2019-02-12T21:33:43.984Z,47.60
2019-02-12T21:36:16.780Z,107.20
2019-02-12T21:38:48.838Z,65.47
2019-02-12T21:41:20.999Z,46.87
2019-02-12T21:43:57.332Z,55.40
2019-02-12T21:46:30.763Z,52.37
2019-02-12T21:49:06.638Z,66.90
2019-02-12T21:51:38.382Z,43.87
2019-02-12T21:54:11.174Z,45.90
2019-02-12T21:56:43.004Z,56.17
2019-02-12T21:59:15.098Z,66.50
2019-02-12T22:01:46.737Z,60.63
2019-02-12T22:04:19.666Z,46.47
2019-02-12T22:06:51.893Z,34.17
2019-02-12T22:09:23.959Z,52.43
2019-02-12T22:11:55.712Z,30.90
2019-02-12T22:14:27.493Z,32.60
2019-02-12T22:16:59.391Z,41.27
2019-02-12T22:19:31.070Z,38.43
2019-02-12T22:22:02.698Z,44.43
2019-02-12T22:24:34.366Z,32.67
2019-02-12T22:27:06.053Z,42.10
2019-02-12T22:29:37.663Z,31.37
2019-02-12T22:32:09.349Z,32.90
2019-02-12T22:34:40.928Z,33.17
2019-02-12T22:37:12.532Z,33.07
2019-02-12T22:39:44.140Z,43.83
2019-02-12T22:42:15.949Z,44.17
2019-02-12T22:44:47.567Z,39.07
2019-02-12T22:47:19.188Z,52.80
2019-02-12T22:49:50.798Z,44.90
2019-02-12T22:52:22.612Z,51.40
2019-02-12T22:54:54.560Z,49.20
2019-02-12T22:57:26.384Z,46.20
2019-02-12T22:59:57.990Z,47.43
2019-02-12T23:02:29.598Z,41.93
2019-02-12T23:05:01.280Z,44.93
2019-02-12T23:07:34.295Z,44.00
2019-02-12T23:10:06.211Z,49.77
2019-02-12T23:12:37.875Z,49.77
2019-02-12T23:15:09.603Z,48.40
2019-02-12T23:17:41.333Z,57.17
2019-02-12T23:20:13.003Z,58.60
2019-02-12T23:22:44.701Z,65.83
2019-02-12T23:25:16.391Z,51.97
2019-02-12T23:27:48.098Z,65.17
2019-02-12T23:30:19.690Z,54.63
2019-02-12T23:32:51.390Z,34.53
2019-02-12T23:35:24.002Z,36.10
2019-02-12T23:37:55.710Z,34.10
2019-02-12T23:40:27.551Z,31.87
2019-02-12T23:42:59.491Z,41.30
2019-02-12T23:45:31.170Z,35.30
2019-02-12T23:48:02.766Z,30.70
2019-02-12T23:50:34.365Z,29.03
2019-02-12T23:53:06.034Z,29.73
2019-02-12T23:55:37.699Z,28.13
2019-02-12T23:58:09.312Z,23.00
